sensor_id;sensor_type;location;lat;lon;timestamp;pressure;altitude;pressure_sealevel;temperature
69785;BMP280;14177;51.520;6.764;2023-01-20T00:01:32;100889.34;;;1.70
69785;BMP280;14177;51.520;6.764;2023-01-20T00:04:00;100891.88;;;1.68
69785;BMP280;14177;51.520;6.764;2023-01-20T00:06:28;100883.34;;;1.69
69785;BMP280;14177;51.520;6.764;2023-01-20T00:08:58;100888.47;;;1.69
69785;BMP280;14177;51.520;6.764;2023-01-20T00:11:27;100888.50;;;1.72
69785;BMP280;14177;51.520;6.764;2023-01-20T00:13:56;100889.34;;;1.71
69785;BMP280;14177;51.520;6.764;2023-01-20T00:16:24;100891.94;;;1.73
69785;BMP280;14177;51.520;6.764;2023-01-20T00:18:52;100892.78;;;1.73
69785;BMP280;14177;51.520;6.764;2023-01-20T00:21:20;100886.81;;;1.74
69785;BMP280;14177;51.520;6.764;2023-01-20T00:23:48;100898.78;;;1.78
69785;BMP280;14177;51.520;6.764;2023-01-20T00:26:18;100899.63;;;1.77
69785;BMP280;14177;51.520;6.764;2023-01-20T00:28:46;100903.91;;;1.78
69785;BMP280;14177;51.520;6.764;2023-01-20T00:31:30;100900.53;;;1.81
69785;BMP280;14177;51.520;6.764;2023-01-20T00:33:59;100898.81;;;1.81
69785;BMP280;14177;51.520;6.764;2023-01-20T00:36:31;100898.81;;;1.81
69785;BMP280;14177;51.520;6.764;2023-01-20T00:39:00;100902.25;;;1.82
69785;BMP280;14177;51.520;6.764;2023-01-20T00:41:29;100903.06;;;1.84
69785;BMP280;14177;51.520;6.764;2023-01-20T00:43:56;100903.13;;;1.90
69785;BMP280;14177;51.520;6.764;2023-01-20T00:46:22;100902.25;;;1.86
69785;BMP280;14177;51.520;6.764;2023-01-20T00:48:50;100913.34;;;1.85
69785;BMP280;14177;51.520;6.764;2023-01-20T00:51:17;100915.03;;;1.85
69785;BMP280;14177;51.520;6.764;2023-01-20T00:53:43;100915.06;;;1.86
69785;BMP280;14177;51.520;6.764;2023-01-20T00:56:10;100915.06;;;1.88
69785;BMP280;14177;51.520;6.764;2023-01-20T00:58:37;100914.22;;;1.87
69785;BMP280;14177;51.520;6.764;2023-01-20T01:01:04;100921.06;;;1.91
69785;BMP280;14177;51.520;6.764;2023-01-20T01:03:31;100919.38;;;1.93
69785;BMP280;14177;51.520;6.764;2023-01-20T01:06:12;100926.19;;;1.91
69785;BMP280;14177;51.520;6.764;2023-01-20T01:08:39;100923.63;;;1.91
69785;BMP280;14177;51.520;6.764;2023-01-20T01:11:08;100929.63;;;1.93
69785;BMP280;14177;51.520;6.764;2023-01-20T01:13:36;100931.34;;;1.94
69785;BMP280;14177;51.520;6.764;2023-01-20T01:16:10;100934.75;;;1.93
69785;BMP280;14177;51.520;6.764;2023-01-20T01:18:37;100935.59;;;1.92
69785;BMP280;14177;51.520;6.764;2023-01-20T01:21:11;100946.72;;;1.94
69785;BMP280;14177;51.520;6.764;2023-01-20T01:23:38;100943.31;;;1.97
69785;BMP280;14177;51.520;6.764;2023-01-20T01:26:05;100934.75;;;1.95
69785;BMP280;14177;51.520;6.764;2023-01-20T01:28:32;100938.19;;;1.95
69785;BMP280;14177;51.520;6.764;2023-01-20T01:31:05;100955.25;;;1.93
69785;BMP280;14177;51.520;6.764;2023-01-20T01:33:33;100954.38;;;1.93
69785;BMP280;14177;51.520;6.764;2023-01-20T01:36:02;100955.28;;;1.96
69785;BMP280;14177;51.520;6.764;2023-01-20T01:38:30;100955.25;;;1.93
69785;BMP280;14177;51.520;6.764;2023-01-20T01:40:57;100962.94;;;1.95
69785;BMP280;14177;51.520;6.764;2023-01-20T01:43:32;100953.53;;;1.94
69785;BMP280;14177;51.520;6.764;2023-01-20T01:46:00;100965.53;;;1.96
69785;BMP280;14177;51.520;6.764;2023-01-20T01:48:36;100962.88;;;1.87
69785;BMP280;14177;51.520;6.764;2023-01-20T01:51:13;100968.00;;;1.87
69785;BMP280;14177;51.520;6.764;2023-01-20T01:53:46;100965.41;;;1.80
69785;BMP280;14177;51.520;6.764;2023-01-20T01:56:15;100968.78;;;1.77
69785;BMP280;14177;51.520;6.764;2023-01-20T01:58:47;100987.56;;;1.76
69785;BMP280;14177;51.520;6.764;2023-01-20T02:01:16;100979.00;;;1.71
69785;BMP280;14177;51.520;6.764;2023-01-20T02:03:55;100980.72;;;1.72
69785;BMP280;14177;51.520;6.764;2023-01-20T02:06:28;100979.00;;;1.74
69785;BMP280;14177;51.520;6.764;2023-01-20T02:09:00;100982.44;;;1.76
69785;BMP280;14177;51.520;6.764;2023-01-20T02:11:30;100980.78;;;1.81
69785;BMP280;14177;51.520;6.764;2023-01-20T02:13:59;100985.06;;;1.87
69785;BMP280;14177;51.520;6.764;2023-01-20T02:36:57;100993.59;;;1.86
69785;BMP280;14177;51.520;6.764;2023-01-20T02:39:50;101001.28;;;1.84
69785;BMP280;14177;51.520;6.764;2023-01-20T02:42:40;100997.88;;;1.82
69785;BMP280;14177;51.520;6.764;2023-01-20T02:48:14;101003.00;;;1.81
69785;BMP280;14177;51.520;6.764;2023-01-20T02:51:25;101014.09;;;1.81
69785;BMP280;14177;51.520;6.764;2023-01-20T02:54:05;101008.94;;;1.83
69785;BMP280;14177;51.520;6.764;2023-01-20T02:56:35;101016.66;;;1.80
69785;BMP280;14177;51.520;6.764;2023-01-20T02:59:10;101016.63;;;1.78
69785;BMP280;14177;51.520;6.764;2023-01-20T03:01:50;101020.03;;;1.77
69785;BMP280;14177;51.520;6.764;2023-01-20T03:04:28;101013.19;;;1.76
69785;BMP280;14177;51.520;6.764;2023-01-20T03:06:58;101008.09;;;1.79
69785;BMP280;14177;51.520;6.764;2023-01-20T03:09:36;101015.75;;;1.75
69785;BMP280;14177;51.520;6.764;2023-01-20T03:12:21;101013.16;;;1.73
69785;BMP280;14177;51.520;6.764;2023-01-20T03:14:51;101013.19;;;1.76
69785;BMP280;14177;51.520;6.764;2023-01-20T03:17:19;101014.06;;;1.78
69785;BMP280;14177;51.520;6.764;2023-01-20T03:19:47;101014.94;;;1.80
69785;BMP280;14177;51.520;6.764;2023-01-20T03:22:15;101018.34;;;1.79
69785;BMP280;14177;51.520;6.764;2023-01-20T03:24:46;101021.78;;;1.81
69785;BMP280;14177;51.520;6.764;2023-01-20T03:27:14;101023.47;;;1.79
69785;BMP280;14177;51.520;6.764;2023-01-20T03:29:41;101037.16;;;1.80
69785;BMP280;14177;51.520;6.764;2023-01-20T03:32:10;101032.88;;;1.82
69785;BMP280;14177;51.520;6.764;2023-01-20T03:34:40;101040.53;;;1.80
69785;BMP280;14177;51.520;6.764;2023-01-20T03:37:10;101046.53;;;1.81
69785;BMP280;14177;51.520;6.764;2023-01-20T03:39:43;101035.44;;;1.79
69785;BMP280;14177;51.520;6.764;2023-01-20T03:42:46;101029.41;;;1.75
69785;BMP280;14177;51.520;6.764;2023-01-20T03:45:22;101041.38;;;1.75
69785;BMP280;14177;51.520;6.764;2023-01-20T03:48:17;101047.38;;;1.77
69785;BMP280;14177;51.520;6.764;2023-01-20T03:54:06;101057.56;;;1.75
69785;BMP280;14177;51.520;6.764;2023-01-20T03:56:52;101054.16;;;1.73
69785;BMP280;14177;51.520;6.764;2023-01-20T03:59:23;101052.44;;;1.72
69785;BMP280;14177;51.520;6.764;2023-01-20T04:01:54;101048.16;;;1.74
69785;BMP280;14177;51.520;6.764;2023-01-20T04:04:22;101043.09;;;1.77
69785;BMP280;14177;51.520;6.764;2023-01-20T04:06:50;101043.09;;;1.80
69785;BMP280;14177;51.520;6.764;2023-01-20T04:09:35;101044.81;;;1.77
69785;BMP280;14177;51.520;6.764;2023-01-20T04:12:10;101054.16;;;1.76
69785;BMP280;14177;51.520;6.764;2023-01-20T04:14:38;101047.34;;;1.75
69785;BMP280;14177;51.520;6.764;2023-01-20T04:17:05;101043.91;;;1.73
69785;BMP280;14177;51.520;6.764;2023-01-20T04:19:35;101056.69;;;1.73
69785;BMP280;14177;51.520;6.764;2023-01-20T04:22:19;101043.91;;;1.73
69785;BMP280;14177;51.520;6.764;2023-01-20T04:25:12;101054.16;;;1.75
69785;BMP280;14177;51.520;6.764;2023-01-20T04:27:40;101049.94;;;1.80
69785;BMP280;14177;51.520;6.764;2023-01-20T04:30:09;101050.78;;;1.76
69785;BMP280;14177;51.520;6.764;2023-01-20T04:32:39;101054.16;;;1.73
69785;BMP280;14177;51.520;6.764;2023-01-20T04:35:08;101054.16;;;1.76
69785;BMP280;14177;51.520;6.764;2023-01-20T04:37:37;101065.25;;;1.75
69785;BMP280;14177;51.520;6.764;2023-01-20T04:40:05;101066.13;;;1.77
69785;BMP280;14177;51.520;6.764;2023-01-20T04:42:41;101071.22;;;1.74
69785;BMP280;14177;51.520;6.764;2023-01-20T04:45:14;101072.13;;;1.79
69785;BMP280;14177;51.520;6.764;2023-01-20T04:47:42;101056.75;;;1.78
69785;BMP280;14177;51.520;6.764;2023-01-20T04:50:12;101063.56;;;1.77
69785;BMP280;14177;51.520;6.764;2023-01-20T04:52:40;101066.19;;;1.83
69785;BMP280;14177;51.520;6.764;2023-01-20T04:55:08;101065.31;;;1.83
69785;BMP280;14177;51.520;6.764;2023-01-20T04:57:35;101076.44;;;1.83
69785;BMP280;14177;51.520;6.764;2023-01-20T05:00:06;101079.00;;;1.85
69785;BMP280;14177;51.520;6.764;2023-01-20T05:02:33;101077.31;;;1.87
69785;BMP280;14177;51.520;6.764;2023-01-20T05:05:00;101076.47;;;1.86
69785;BMP280;14177;51.520;6.764;2023-01-20T05:07:28;101078.19;;;1.87
69785;BMP280;14177;51.520;6.764;2023-01-20T05:09:57;101083.31;;;1.87
69785;BMP280;14177;51.520;6.764;2023-01-20T05:12:24;101080.75;;;1.87
69785;BMP280;14177;51.520;6.764;2023-01-20T05:14:51;101085.91;;;1.92
69785;BMP280;14177;51.520;6.764;2023-01-20T05:17:18;101078.22;;;1.93
69785;BMP280;14177;51.520;6.764;2023-01-20T05:19:48;101086.75;;;1.94
69785;BMP280;14177;51.520;6.764;2023-01-20T05:22:15;101086.78;;;1.97
69785;BMP280;14177;51.520;6.764;2023-01-20T05:24:46;101089.34;;;1.97
69785;BMP280;14177;51.520;6.764;2023-01-20T05:27:13;101096.22;;;1.99
69785;BMP280;14177;51.520;6.764;2023-01-20T05:29:40;101088.53;;;1.99
69785;BMP280;14177;51.520;6.764;2023-01-20T05:32:07;101090.22;;;1.99
69785;BMP280;14177;51.520;6.764;2023-01-20T05:34:34;101093.63;;;1.98
69785;BMP280;14177;51.520;6.764;2023-01-20T05:37:01;101097.09;;;2.01
69785;BMP280;14177;51.520;6.764;2023-01-20T05:39:30;101098.81;;;2.02
69785;BMP280;14177;51.520;6.764;2023-01-20T05:42:00;101096.25;;;2.04
69785;BMP280;14177;51.520;6.764;2023-01-20T05:44:28;101100.53;;;2.03
69785;BMP280;14177;51.520;6.764;2023-01-20T05:46:55;101106.50;;;2.02
69785;BMP280;14177;51.520;6.764;2023-01-20T05:49:22;101114.16;;;1.99
69785;BMP280;14177;51.520;6.764;2023-01-20T05:51:49;101120.97;;;1.97
69785;BMP280;14177;51.520;6.764;2023-01-20T05:54:18;101117.56;;;1.98
69785;BMP280;14177;51.520;6.764;2023-01-20T05:56:47;101110.72;;;1.97
69785;BMP280;14177;51.520;6.764;2023-01-20T05:59:22;101112.44;;;1.98
69785;BMP280;14177;51.520;6.764;2023-01-20T06:01:49;101122.72;;;2.01
69785;BMP280;14177;51.520;6.764;2023-01-20T06:04:16;101121.00;;;2.00
69785;BMP280;14177;51.520;6.764;2023-01-20T06:06:43;101127.84;;;2.03
69785;BMP280;14177;51.520;6.764;2023-01-20T06:09:12;101129.56;;;2.02
69785;BMP280;14177;51.520;6.764;2023-01-20T06:11:41;101127.84;;;2.01
69785;BMP280;14177;51.520;6.764;2023-01-20T06:14:09;101130.44;;;2.04
69785;BMP280;14177;51.520;6.764;2023-01-20T06:16:41;101135.59;;;2.09
69785;BMP280;14177;51.520;6.764;2023-01-20T06:19:08;101137.28;;;2.07
69785;BMP280;14177;51.520;6.764;2023-01-20T06:21:35;101139.91;;;2.11
69785;BMP280;14177;51.520;6.764;2023-01-20T06:24:02;101142.47;;;2.13
69785;BMP280;14177;51.520;6.764;2023-01-20T06:26:30;101151.91;;;2.15
69785;BMP280;14177;51.520;6.764;2023-01-20T06:28:58;101152.75;;;2.14
69785;BMP280;14177;51.520;6.764;2023-01-20T06:31:27;101157.00;;;2.12
69785;BMP280;14177;51.520;6.764;2023-01-20T06:33:54;101156.13;;;2.10
69785;BMP280;14177;51.520;6.764;2023-01-20T06:36:23;101149.25;;;2.06
69785;BMP280;14177;51.520;6.764;2023-01-20T06:38:52;101154.34;;;2.05
69785;BMP280;14177;51.520;6.764;2023-01-20T06:41:20;101144.97;;;2.05
69785;BMP280;14177;51.520;6.764;2023-01-20T06:43:47;101157.78;;;2.05
69785;BMP280;14177;51.520;6.764;2023-01-20T06:46:16;101157.75;;;2.04
69785;BMP280;14177;51.520;6.764;2023-01-20T06:48:45;101150.06;;;2.02
69785;BMP280;14177;51.520;6.764;2023-01-20T06:51:16;101150.03;;;2.01
69785;BMP280;14177;51.520;6.764;2023-01-20T06:53:44;101157.69;;;1.98
69785;BMP280;14177;51.520;6.764;2023-01-20T06:56:13;101165.44;;;2.02
69785;BMP280;14177;51.520;6.764;2023-01-20T06:58:41;101161.97;;;1.97
69785;BMP280;14177;51.520;6.764;2023-01-20T07:01:20;101162.81;;;1.98
69785;BMP280;14177;51.520;6.764;2023-01-20T07:03:48;101164.56;;;2.02
69785;BMP280;14177;51.520;6.764;2023-01-20T07:06:36;101164.56;;;2.02
69785;BMP280;14177;51.520;6.764;2023-01-20T07:09:10;101162.88;;;2.02
69785;BMP280;14177;51.520;6.764;2023-01-20T07:11:38;101166.28;;;2.01
69785;BMP280;14177;51.520;6.764;2023-01-20T07:14:07;101165.41;;;2.01
69785;BMP280;14177;51.520;6.764;2023-01-20T07:16:34;101167.13;;;2.02
69785;BMP280;14177;51.520;6.764;2023-01-20T07:19:05;101167.97;;;1.99
69785;BMP280;14177;51.520;6.764;2023-01-20T07:21:32;101177.34;;;1.97
69785;BMP280;14177;51.520;6.764;2023-01-20T07:24:01;101172.22;;;1.97
69785;BMP280;14177;51.520;6.764;2023-01-20T07:26:31;101185.06;;;2.02
69785;BMP280;14177;51.520;6.764;2023-01-20T07:28:58;101183.34;;;1.99
69785;BMP280;14177;51.520;6.764;2023-01-20T07:31:28;101192.78;;;2.03
69785;BMP280;14177;51.520;6.764;2023-01-20T07:33:58;101195.31;;;2.02
69785;BMP280;14177;51.520;6.764;2023-01-20T07:36:30;101197.91;;;2.05
69785;BMP280;14177;51.520;6.764;2023-01-20T07:38:58;101197.03;;;2.01
69785;BMP280;14177;51.520;6.764;2023-01-20T07:41:25;101204.72;;;2.01
69785;BMP280;14177;51.520;6.764;2023-01-20T07:43:54;101202.97;;;1.97
69785;BMP280;14177;51.520;6.764;2023-01-20T07:46:24;101203.84;;;2.01
69785;BMP280;14177;51.520;6.764;2023-01-20T07:48:52;101209.88;;;2.04
69785;BMP280;14177;51.520;6.764;2023-01-20T07:51:19;101218.41;;;2.03
69785;BMP280;14177;51.520;6.764;2023-01-20T07:53:48;101220.16;;;2.07
69785;BMP280;14177;51.520;6.764;2023-01-20T07:56:22;101229.47;;;2.01
69785;BMP280;14177;51.520;6.764;2023-01-20T07:58:50;101232.91;;;2.01
69785;BMP280;14177;51.520;6.764;2023-01-20T08:01:31;101243.06;;;1.94
69785;BMP280;14177;51.520;6.764;2023-01-20T08:03:59;101246.50;;;1.96
69785;BMP280;14177;51.520;6.764;2023-01-20T08:06:26;101239.69;;;1.98
69785;BMP280;14177;51.520;6.764;2023-01-20T08:08:54;101240.69;;;2.07
69785;BMP280;14177;51.520;6.764;2023-01-20T08:11:24;101248.31;;;2.01
69785;BMP280;14177;51.520;6.764;2023-01-20T08:13:54;101255.16;;;2.02
69785;BMP280;14177;51.520;6.764;2023-01-20T08:16:21;101258.56;;;2.01
69785;BMP280;14177;51.520;6.764;2023-01-20T08:18:48;101260.28;;;2.02
69785;BMP280;14177;51.520;6.764;2023-01-20T08:21:25;101263.69;;;2.01
69785;BMP280;14177;51.520;6.764;2023-01-20T08:23:57;101257.78;;;2.10
69785;BMP280;14177;51.520;6.764;2023-01-20T08:26:27;101266.38;;;2.13
69785;BMP280;14177;51.520;6.764;2023-01-20T08:29:08;101266.34;;;2.10
69785;BMP280;14177;51.520;6.764;2023-01-20T08:31:36;101264.56;;;2.05
69785;BMP280;14177;51.520;6.764;2023-01-20T08:34:05;101262.81;;;2.01
69785;BMP280;14177;51.520;6.764;2023-01-20T08:36:35;101265.41;;;2.04
69785;BMP280;14177;51.520;6.764;2023-01-20T08:39:06;101268.03;;;2.08
69785;BMP280;14177;51.520;6.764;2023-01-20T08:41:37;101270.59;;;2.08
69785;BMP280;14177;51.520;6.764;2023-01-20T08:44:06;101268.09;;;2.16
69785;BMP280;14177;51.520;6.764;2023-01-20T08:46:35;101276.66;;;2.19
69785;BMP280;14177;51.520;6.764;2023-01-20T08:49:15;101265.56;;;2.20
69785;BMP280;14177;51.520;6.764;2023-01-20T08:51:44;101285.25;;;2.23
69785;BMP280;14177;51.520;6.764;2023-01-20T08:54:13;101281.81;;;2.22
69785;BMP280;14177;51.520;6.764;2023-01-20T08:56:41;101289.50;;;2.22
69785;BMP280;14177;51.520;6.764;2023-01-20T08:59:09;101281.88;;;2.28
69785;BMP280;14177;51.520;6.764;2023-01-20T09:01:36;101291.28;;;2.29
69785;BMP280;14177;51.520;6.764;2023-01-20T09:04:04;101292.16;;;2.28
69785;BMP280;14177;51.520;6.764;2023-01-20T09:06:44;101299.91;;;2.33
69785;BMP280;14177;51.520;6.764;2023-01-20T09:09:15;101291.34;;;2.35
69785;BMP280;14177;51.520;6.764;2023-01-20T09:11:42;101293.91;;;2.31
69785;BMP280;14177;51.520;6.764;2023-01-20T09:14:28;101301.56;;;2.28
69785;BMP280;14177;51.520;6.764;2023-01-20T09:16:56;101303.28;;;2.29
69785;BMP280;14177;51.520;6.764;2023-01-20T09:19:24;101305.84;;;2.30
69785;BMP280;14177;51.520;6.764;2023-01-20T09:21:51;101299.00;;;2.29
69785;BMP280;14177;51.520;6.764;2023-01-20T09:24:18;101304.13;;;2.29
69785;BMP280;14177;51.520;6.764;2023-01-20T09:26:47;101304.94;;;2.24
69785;BMP280;14177;51.520;6.764;2023-01-20T09:29:18;101298.13;;;2.27
69785;BMP280;14177;51.520;6.764;2023-01-20T09:31:52;101303.28;;;2.29
69785;BMP280;14177;51.520;6.764;2023-01-20T09:34:27;101299.00;;;2.29
69785;BMP280;14177;51.520;6.764;2023-01-20T09:37:02;101301.63;;;2.34
69785;BMP280;14177;51.520;6.764;2023-01-20T09:39:47;101296.53;;;2.37
69785;BMP280;14177;51.520;6.764;2023-01-20T09:49:03;101294.09;;;2.50
69785;BMP280;14177;51.520;6.764;2023-01-20T09:52:16;101305.25;;;2.55
69785;BMP280;14177;51.520;6.764;2023-01-20T09:55:20;101305.31;;;2.61
69785;BMP280;14177;51.520;6.764;2023-01-20T09:57:58;101301.03;;;2.60
69785;BMP280;14177;51.520;6.764;2023-01-20T10:00:31;101305.34;;;2.64
69785;BMP280;14177;51.520;6.764;2023-01-20T10:06:19;101307.09;;;2.68
69785;BMP280;14177;51.520;6.764;2023-01-20T10:08:57;101306.28;;;2.75
69785;BMP280;14177;51.520;6.764;2023-01-20T10:11:40;101310.59;;;2.80
69785;BMP280;14177;51.520;6.764;2023-01-20T10:14:29;101304.69;;;2.86
69785;BMP280;14177;51.520;6.764;2023-01-20T10:17:11;101306.44;;;2.90
69785;BMP280;14177;51.520;6.764;2023-01-20T10:19:48;101308.22;;;3.01
69785;BMP280;14177;51.520;6.764;2023-01-20T10:22:29;101309.09;;;3.05
69785;BMP280;14177;51.520;6.764;2023-01-20T10:25:21;101309.16;;;3.09
69785;BMP280;14177;51.520;6.764;2023-01-20T10:27:55;101306.56;;;3.11
69785;BMP280;14177;51.520;6.764;2023-01-20T10:30:30;101312.56;;;3.13
69785;BMP280;14177;51.520;6.764;2023-01-20T10:33:13;101309.19;;;3.15
69785;BMP280;14177;51.520;6.764;2023-01-20T10:35:50;101305.72;;;3.12
69785;BMP280;14177;51.520;6.764;2023-01-20T10:38:58;101301.47;;;3.14
69785;BMP280;14177;51.520;6.764;2023-01-20T10:43:59;101297.16;;;3.10
69785;BMP280;14177;51.520;6.764;2023-01-20T10:46:48;101298.94;;;3.20
69785;BMP280;14177;51.520;6.764;2023-01-20T10:58:34;101299.81;;;3.25
69785;BMP280;14177;51.520;6.764;2023-01-20T11:01:06;101298.13;;;3.22
69785;BMP280;14177;51.520;6.764;2023-01-20T11:03:40;101300.69;;;3.22
69785;BMP280;14177;51.520;6.764;2023-01-20T11:06:20;101292.13;;;3.23
69785;BMP280;14177;51.520;6.764;2023-01-20T11:08:48;101296.44;;;3.29
69785;BMP280;14177;51.520;6.764;2023-01-20T11:11:22;101308.44;;;3.33
69785;BMP280;14177;51.520;6.764;2023-01-20T11:13:51;101306.78;;;3.38
69785;BMP280;14177;51.520;6.764;2023-01-20T11:16:24;101307.59;;;3.35
69785;BMP280;14177;51.520;6.764;2023-01-20T11:19:04;101299.91;;;3.37
69785;BMP280;14177;51.520;6.764;2023-01-20T11:21:34;101308.47;;;3.39
69785;BMP280;14177;51.520;6.764;2023-01-20T11:24:37;101305.94;;;3.42
69785;BMP280;14177;51.520;6.764;2023-01-20T11:27:22;101300.78;;;3.43
69785;BMP280;14177;51.520;6.764;2023-01-20T11:30:00;101300.00;;;3.49
69785;BMP280;14177;51.520;6.764;2023-01-20T11:32:33;101299.13;;;3.47
69785;BMP280;14177;51.520;6.764;2023-01-20T11:35:23;101303.41;;;3.52
69785;BMP280;14177;51.520;6.764;2023-01-20T11:37:51;101301.72;;;3.50
69785;BMP280;14177;51.520;6.764;2023-01-20T11:40:27;101301.69;;;3.47
69785;BMP280;14177;51.520;6.764;2023-01-20T11:42:54;101300.00;;;3.52
69785;BMP280;14177;51.520;6.764;2023-01-20T11:45:30;101298.28;;;3.48
69785;BMP280;14177;51.520;6.764;2023-01-20T11:50:54;101300.00;;;3.49
69785;BMP280;14177;51.520;6.764;2023-01-20T11:53:29;101302.53;;;3.47
69785;BMP280;14177;51.520;6.764;2023-01-20T11:56:21;101302.50;;;3.44
69785;BMP280;14177;51.520;6.764;2023-01-20T11:58:58;101293.06;;;3.39
69785;BMP280;14177;51.520;6.764;2023-01-20T12:01:30;101293.97;;;3.44
69785;BMP280;14177;51.520;6.764;2023-01-20T12:07:31;101298.28;;;3.48
69785;BMP280;14177;51.520;6.764;2023-01-20T12:10:23;101297.41;;;3.50
69785;BMP280;14177;51.520;6.764;2023-01-20T12:13:20;101293.97;;;3.48
69785;BMP280;14177;51.520;6.764;2023-01-20T12:15:57;101298.34;;;3.62
69785;BMP280;14177;51.520;6.764;2023-01-20T12:18:43;101297.47;;;3.58
69785;BMP280;14177;51.520;6.764;2023-01-20T12:21:44;101306.88;;;3.56
69785;BMP280;14177;51.520;6.764;2023-01-20T12:24:52;101300.88;;;3.55
69785;BMP280;14177;51.520;6.764;2023-01-20T12:27:53;101306.03;;;3.61
69785;BMP280;14177;51.520;6.764;2023-01-20T12:30:44;101306.91;;;3.58
69785;BMP280;14177;51.520;6.764;2023-01-20T12:33:36;101314.63;;;3.61
69785;BMP280;14177;51.520;6.764;2023-01-20T12:39:06;101306.09;;;3.70
69785;BMP280;14177;51.520;6.764;2023-01-20T13:06:08;101315.47;;;3.66
69785;BMP280;14177;51.520;6.764;2023-01-20T13:14:46;101324.88;;;3.64
69785;BMP280;14177;51.520;6.764;2023-01-20T13:20:26;101330.06;;;3.66
69785;BMP280;14177;51.520;6.764;2023-01-20T13:23:04;101337.75;;;3.66
69785;BMP280;14177;51.520;6.764;2023-01-20T13:25:41;101331.72;;;3.61
69785;BMP280;14177;51.520;6.764;2023-01-20T13:28:24;101334.28;;;3.57
69785;BMP280;14177;51.520;6.764;2023-01-20T13:30:58;101335.13;;;3.57
69785;BMP280;14177;51.520;6.764;2023-01-20T13:34:37;101330.88;;;3.59
69785;BMP280;14177;51.520;6.764;2023-01-20T13:37:37;101342.03;;;3.64
69785;BMP280;14177;51.520;6.764;2023-01-20T13:49:28;101335.25;;;3.76
69785;BMP280;14177;51.520;6.764;2023-01-20T13:56:51;101351.50;;;3.75
69785;BMP280;14177;51.520;6.764;2023-01-20T13:59:58;101348.97;;;3.77
69785;BMP280;14177;51.520;6.764;2023-01-20T14:02:37;101350.69;;;3.78
69785;BMP280;14177;51.520;6.764;2023-01-20T14:05:29;101348.13;;;3.78
69785;BMP280;14177;51.520;6.764;2023-01-20T14:07:57;101364.38;;;3.81
69785;BMP280;14177;51.520;6.764;2023-01-20T14:10:26;101360.97;;;3.81
69785;BMP280;14177;51.520;6.764;2023-01-20T14:12:53;101360.09;;;3.79
69785;BMP280;14177;51.520;6.764;2023-01-20T14:15:24;101366.94;;;3.78
69785;BMP280;14177;51.520;6.764;2023-01-20T14:17:54;101373.78;;;3.73
69785;BMP280;14177;51.520;6.764;2023-01-20T14:20:24;101368.66;;;3.76
69785;BMP280;14177;51.520;6.764;2023-01-20T14:22:51;101379.78;;;3.78
69785;BMP280;14177;51.520;6.764;2023-01-20T14:25:25;101375.50;;;3.77
69785;BMP280;14177;51.520;6.764;2023-01-20T14:27:52;101372.09;;;3.81
69785;BMP280;14177;51.520;6.764;2023-01-20T14:30:25;101373.78;;;3.76
69785;BMP280;14177;51.520;6.764;2023-01-20T14:32:53;101379.78;;;3.75
69785;BMP280;14177;51.520;6.764;2023-01-20T14:35:25;101391.81;;;3.78
69785;BMP280;14177;51.520;6.764;2023-01-20T14:37:57;101389.22;;;3.79
69785;BMP280;14177;51.520;6.764;2023-01-20T14:40:29;101398.66;;;3.76
69785;BMP280;14177;51.520;6.764;2023-01-20T14:43:18;101402.88;;;3.72
69785;BMP280;14177;51.520;6.764;2023-01-20T14:45:49;101404.59;;;3.70
69785;BMP280;14177;51.520;6.764;2023-01-20T14:48:20;101409.72;;;3.70
69785;BMP280;14177;51.520;6.764;2023-01-20T14:51:01;101416.59;;;3.71
69785;BMP280;14177;51.520;6.764;2023-01-20T14:53:30;101418.34;;;3.75
69785;BMP280;14177;51.520;6.764;2023-01-20T14:56:02;101419.22;;;3.76
69785;BMP280;14177;51.520;6.764;2023-01-20T14:58:30;101435.47;;;3.76
69785;BMP280;14177;51.520;6.764;2023-01-20T15:01:03;101437.16;;;3.74
69785;BMP280;14177;51.520;6.764;2023-01-20T15:03:31;101437.19;;;3.77
69785;BMP280;14177;51.520;6.764;2023-01-20T15:06:17;101439.72;;;3.71
69785;BMP280;14177;51.520;6.764;2023-01-20T15:08:48;101450.88;;;3.73
69785;BMP280;14177;51.520;6.764;2023-01-20T15:11:32;101447.44;;;3.71
69785;BMP280;14177;51.520;6.764;2023-01-20T15:16:45;101461.97;;;3.69
69785;BMP280;14177;51.520;6.764;2023-01-20T15:21:49;101463.69;;;3.69
69785;BMP280;14177;51.520;6.764;2023-01-20T15:24:21;101465.41;;;3.70
69785;BMP280;14177;51.520;6.764;2023-01-20T15:26:53;101470.53;;;3.68
69785;BMP280;14177;51.520;6.764;2023-01-20T15:29:34;101479.94;;;3.66
69785;BMP280;14177;51.520;6.764;2023-01-20T15:32:10;101486.81;;;3.70
69785;BMP280;14177;51.520;6.764;2023-01-20T15:34:37;101493.66;;;3.68
69785;BMP280;14177;51.520;6.764;2023-01-20T15:37:16;101493.66;;;3.68
69785;BMP280;14177;51.520;6.764;2023-01-20T15:39:44;101489.41;;;3.69
69785;BMP280;14177;51.520;6.764;2023-01-20T15:42:12;101502.25;;;3.69
69785;BMP280;14177;51.520;6.764;2023-01-20T15:44:41;101496.22;;;3.64
69785;BMP280;14177;51.520;6.764;2023-01-20T15:47:42;101509.91;;;3.63
69785;BMP280;14177;51.520;6.764;2023-01-20T15:50:22;101521.06;;;3.63
69785;BMP280;14177;51.520;6.764;2023-01-20T15:52:52;101520.16;;;3.60
69785;BMP280;14177;51.520;6.764;2023-01-20T15:55:20;101519.31;;;3.59
69785;BMP280;14177;51.520;6.764;2023-01-20T15:57:50;101533.00;;;3.60
69785;BMP280;14177;51.520;6.764;2023-01-20T16:00:21;101529.59;;;3.59
69785;BMP280;14177;51.520;6.764;2023-01-20T16:02:49;101543.28;;;3.58
69785;BMP280;14177;51.520;6.764;2023-01-20T16:05:17;101545.88;;;3.61
69785;BMP280;14177;51.520;6.764;2023-01-20T16:07:44;101549.28;;;3.60
69785;BMP280;14177;51.520;6.764;2023-01-20T16:10:16;101551.88;;;3.60
69785;BMP280;14177;51.520;6.764;2023-01-20T16:12:48;101554.44;;;3.62
69785;BMP280;14177;51.520;6.764;2023-01-20T16:15:30;101547.56;;;3.61
69785;BMP280;14177;51.520;6.764;2023-01-20T16:18:36;101565.56;;;3.59
69785;BMP280;14177;51.520;6.764;2023-01-20T16:21:33;101563.84;;;3.58
69785;BMP280;14177;51.520;6.764;2023-01-20T16:30:46;101592.94;;;3.58
69785;BMP280;14177;51.520;6.764;2023-01-20T16:47:40;101617.50;;;3.32
69785;BMP280;14177;51.520;6.764;2023-01-20T16:50:21;101618.25;;;3.23
69785;BMP280;14177;51.520;6.764;2023-01-20T16:53:12;101615.59;;;3.14
69785;BMP280;14177;51.520;6.764;2023-01-20T16:56:03;101618.06;;;3.08
69785;BMP280;14177;51.520;6.764;2023-01-20T16:58:55;101633.38;;;3.01